Time;durP1;ratioP1;P1;durP2;ratioP2;P2;SDS_P1;SDS_P2;PMS_P1;PMS_P2;Temp;Humidity;BMP_temperature;BMP_pressure;BME280_temperature;BME280_humidity;BME280_pressure;Samples;Min_cycle;Max_cycle;Signal;HPM_P1;HPM_P2
2022/10/31 00:01:52;;;;;;;1.57;1.00;;;15.00;98.20;;;;;;4999065;28;20482;-77
2022/10/31 00:04:19;;;;;;;1.53;1.00;;;15.00;98.20;;;;;;4998075;28;21034;-77
2022/10/31 00:06:45;;;;;;;1.53;1.00;;;15.00;98.20;;;;;;4989259;28;20543;-76
2022/10/31 00:09:12;;;;;;;1.57;1.10;;;15.00;98.20;;;;;;5006101;28;20456;-77
2022/10/31 00:11:39;;;;;;;1.53;1.00;;;14.90;98.20;;;;;;4992491;28;20480;-77
2022/10/31 00:14:06;;;;;;;1.53;1.00;;;14.90;98.20;;;;;;4999788;28;20496;-78
2022/10/31 00:16:33;;;;;;;1.70;1.40;;;14.80;98.20;;;;;;4989699;28;20487;-77
2022/10/31 00:19:03;;;;;;;1.53;1.00;;;14.80;98.20;;;;;;5000593;28;20715;-77
2022/10/31 00:21:31;;;;;;;1.60;1.00;;;14.80;98.20;;;;;;4988820;28;20883;-77
2022/10/31 00:23:59;;;;;;;1.53;0.90;;;14.80;98.20;;;;;;5000752;28;20489;-77
2022/10/31 00:26:27;;;;;;;1.57;1.00;;;14.70;98.20;;;;;;4985084;28;20540;-77
2022/10/31 00:28:54;;;;;;;1.53;1.00;;;14.70;98.20;;;;;;5001180;28;20487;-77
2022/10/31 00:31:21;;;;;;;1.60;1.00;;;14.70;98.20;;;;;;4990730;28;20483;-76
2022/10/31 00:33:48;;;;;;;1.57;1.00;;;14.70;98.20;;;;;;5007763;28;20845;-77
2022/10/31 00:36:18;;;;;;;1.60;1.10;;;14.60;98.20;;;;;;4995922;28;20483;-78
2022/10/31 00:38:46;;;;;;;1.60;1.00;;;14.60;98.20;;;;;;5011627;28;20471;-78
2022/10/31 00:41:15;;;;;;;1.60;1.10;;;14.60;98.20;;;;;;4991831;28;20711;-77
2022/10/31 00:43:42;;;;;;;2.67;1.93;;;14.60;98.20;;;;;;4998852;28;20564;-77
2022/10/31 00:46:09;;;;;;;1.60;1.00;;;14.50;98.20;;;;;;4988440;28;20487;-76
2022/10/31 00:48:35;;;;;;;1.57;1.00;;;14.50;98.20;;;;;;5021354;28;20987;-77
2022/10/31 00:51:02;;;;;;;1.57;1.00;;;14.50;98.20;;;;;;4997795;28;20499;-77
2022/10/31 00:53:31;;;;;;;1.57;1.00;;;14.50;98.20;;;;;;5019644;28;20487;-77
2022/10/31 00:55:57;;;;;;;1.57;1.00;;;14.50;98.20;;;;;;4998852;28;20560;-77
2022/10/31 00:58:24;;;;;;;1.60;1.00;;;14.60;98.20;;;;;;5020671;28;20847;-77
2022/10/31 01:00:54;;;;;;;1.60;1.20;;;14.60;98.20;;;;;;5000020;28;20464;-77
2022/10/31 01:03:22;;;;;;;1.60;1.10;;;14.60;98.20;;;;;;5008075;28;20483;-76
2022/10/31 01:06:00;;;;;;;1.53;1.00;;;14.70;98.20;;;;;;4982661;28;20918;-77
2022/10/31 01:08:27;;;;;;;1.57;1.00;;;14.70;98.20;;;;;;5006857;28;20515;-77
2022/10/31 01:11:07;;;;;;;1.50;1.00;;;14.70;98.20;;;;;;4980944;28;20472;-77
2022/10/31 01:13:34;;;;;;;1.53;1.00;;;14.70;98.20;;;;;;5002792;28;20908;-76
2022/10/31 01:16:02;;;;;;;1.53;1.00;;;14.80;98.20;;;;;;4995506;28;20831;-76
2022/10/31 01:18:29;;;;;;;1.50;1.00;;;14.70;98.20;;;;;;5002740;28;20978;-76
2022/10/31 01:21:04;;;;;;;1.50;1.00;;;14.70;98.20;;;;;;4987866;28;20469;-78
2022/10/31 01:23:31;;;;;;;1.53;1.00;;;14.70;98.20;;;;;;5003015;28;20480;-77
2022/10/31 01:26:05;;;;;;;1.60;1.00;;;14.70;98.20;;;;;;4983147;28;20461;-77
2022/10/31 01:28:32;;;;;;;1.60;1.10;;;14.80;98.20;;;;;;5016180;28;20457;-76
2022/10/31 01:31:02;;;;;;;1.53;1.00;;;14.80;98.20;;;;;;4982390;28;20488;-77
2022/10/31 01:33:29;;;;;;;1.60;1.00;;;14.80;98.20;;;;;;5004551;28;20497;-77
2022/10/31 01:35:56;;;;;;;1.53;1.00;;;14.80;98.20;;;;;;4982241;28;20465;-76
2022/10/31 01:38:23;;;;;;;1.57;1.00;;;14.80;98.20;;;;;;5007206;28;20832;-77
2022/10/31 01:40:49;;;;;;;1.50;1.00;;;14.80;98.20;;;;;;4992209;28;20817;-77
2022/10/31 01:43:18;;;;;;;1.53;1.00;;;14.70;98.20;;;;;;5007810;28;21857;-76
2022/10/31 01:45:51;;;;;;;1.60;1.10;;;14.70;98.20;;;;;;5009824;28;20469;-76
2022/10/31 01:48:20;;;;;;;1.53;1.00;;;14.70;98.20;;;;;;4998352;28;20484;-76
2022/10/31 01:50:49;;;;;;;1.57;1.00;;;14.70;98.20;;;;;;5002911;28;20460;-77
2022/10/31 01:53:17;;;;;;;1.53;1.00;;;14.60;98.20;;;;;;5004431;28;20964;-76
2022/10/31 01:55:46;;;;;;;1.50;1.00;;;14.60;98.20;;;;;;4989587;28;20843;-76
2022/10/31 01:58:15;;;;;;;2.83;2.10;;;14.60;98.20;;;;;;4996849;28;20469;-76
2022/10/31 02:00:48;;;;;;;1.50;1.00;;;14.50;98.20;;;;;;5009560;28;20455;-76
2022/10/31 02:03:16;;;;;;;1.60;1.17;;;14.50;98.20;;;;;;4977635;28;20766;-76
2022/10/31 02:05:43;;;;;;;1.57;1.00;;;14.50;98.20;;;;;;4988949;28;20459;-76
2022/10/31 02:08:16;;;;;;;1.57;1.00;;;14.40;98.20;;;;;;4998638;28;20860;-77
2022/10/31 02:10:44;;;;;;;1.60;1.10;;;14.40;98.20;;;;;;5001569;28;20456;-76
2022/10/31 02:13:12;;;;;;;1.60;1.10;;;14.40;98.20;;;;;;4978215;28;20473;-76
2022/10/31 02:15:40;;;;;;;1.60;1.10;;;14.30;98.20;;;;;;4990021;28;20489;-76
2022/10/31 02:18:09;;;;;;;1.50;1.00;;;14.30;98.20;;;;;;4980375;28;21005;-77
2022/10/31 02:20:46;;;;;;;1.60;1.10;;;14.30;98.20;;;;;;4988578;28;20461;-77
2022/10/31 02:23:47;;;;;;;1.60;1.00;;;14.20;98.20;;;;;;4977597;28;20833;-76
2022/10/31 02:26:32;;;;;;;1.53;1.00;;;14.20;98.20;;;;;;4983097;28;20503;-77
2022/10/31 02:29:17;;;;;;;1.57;1.00;;;14.20;98.20;;;;;;5008472;28;20460;-77
2022/10/31 02:31:52;;;;;;;1.60;1.10;;;14.10;98.20;;;;;;4984525;28;20488;-77
2022/10/31 02:34:22;;;;;;;1.57;1.10;;;14.10;98.20;;;;;;4990066;28;20491;-77
2022/10/31 02:36:57;;;;;;;1.60;1.07;;;14.10;98.20;;;;;;5001406;28;20490;-77
2022/10/31 02:39:27;;;;;;;1.60;1.10;;;14.00;98.20;;;;;;4999177;28;20461;-77
2022/10/31 02:42:09;;;;;;;1.57;1.00;;;14.00;98.20;;;;;;4995187;28;20484;-77
2022/10/31 02:44:40;;;;;;;1.57;1.00;;;13.90;98.20;;;;;;4993716;28;20492;-77
2022/10/31 02:47:13;;;;;;;1.57;1.00;;;13.90;98.20;;;;;;4985820;28;20574;-76
2022/10/31 02:49:46;;;;;;;1.60;1.00;;;13.90;98.20;;;;;;5024070;28;20475;-77
2022/10/31 02:52:20;;;;;;;1.57;1.00;;;13.90;98.20;;;;;;5000432;28;20491;-77
2022/10/31 02:54:48;;;;;;;1.53;1.10;;;13.90;98.20;;;;;;4997296;28;20491;-77
2022/10/31 02:57:18;;;;;;;1.53;1.00;;;13.80;98.20;;;;;;4977740;28;20509;-77
2022/10/31 02:59:48;;;;;;;1.53;1.00;;;13.80;98.20;;;;;;4988945;28;20469;-77
2022/10/31 03:02:54;;;;;;;1.50;1.00;;;13.80;98.20;;;;;;4989731;28;20488;-76
2022/10/31 03:05:41;;;;;;;1.60;1.10;;;13.80;98.20;;;;;;4992701;28;20477;-76
2022/10/31 03:08:17;;;;;;;1.60;1.10;;;13.70;98.20;;;;;;4991836;28;20904;-76
2022/10/31 03:10:48;;;;;;;1.57;1.00;;;13.70;98.20;;;;;;5005987;28;20456;-76
2022/10/31 03:13:24;;;;;;;1.60;1.10;;;13.60;98.20;;;;;;4976708;28;20481;-76
2022/10/31 03:15:52;;;;;;;1.60;1.10;;;13.60;98.20;;;;;;4980385;28;20474;-77
2022/10/31 03:18:27;;;;;;;1.57;1.00;;;13.60;98.20;;;;;;5002678;28;20457;-77
2022/10/31 03:21:00;;;;;;;1.70;1.43;;;13.60;98.20;;;;;;4985324;28;20460;-77
2022/10/31 03:23:27;;;;;;;1.60;1.00;;;13.60;98.20;;;;;;5002469;28;20507;-77
2022/10/31 03:25:55;;;;;;;1.53;1.00;;;13.60;98.20;;;;;;4983500;28;20993;-76
2022/10/31 03:28:28;;;;;;;1.60;1.00;;;13.60;98.20;;;;;;5018185;28;20489;-76
2022/10/31 03:30:57;;;;;;;1.60;1.00;;;13.50;98.20;;;;;;4982085;28;20997;-75
2022/10/31 03:33:29;;;;;;;1.53;1.00;;;13.50;98.20;;;;;;5002976;28;20481;-77
2022/10/31 03:36:01;;;;;;;1.60;1.00;;;13.50;98.20;;;;;;4982641;28;20457;-77
2022/10/31 03:38:30;;;;;;;1.60;1.00;;;13.50;98.20;;;;;;5017852;28;20464;-74
2022/10/31 03:41:02;;;;;;;1.60;1.10;;;13.50;98.20;;;;;;4989451;28;20471;-75
2022/10/31 03:43:33;;;;;;;1.60;1.10;;;13.50;98.20;;;;;;5001025;28;20484;-74
2022/10/31 03:46:00;;;;;;;1.57;1.10;;;13.60;98.20;;;;;;4981829;28;20942;-76
2022/10/31 03:48:28;;;;;;;1.60;1.10;;;13.60;98.20;;;;;;5016257;28;20794;-75
2022/10/31 03:51:01;;;;;;;1.53;1.00;;;13.70;98.20;;;;;;4980354;28;20600;-74
2022/10/31 03:53:33;;;;;;;1.53;1.00;;;13.70;98.20;;;;;;5000519;28;20488;-74
2022/10/31 03:56:03;;;;;;;1.60;1.03;;;13.70;98.20;;;;;;4981687;28;20468;-74
2022/10/31 03:58:37;;;;;;;1.57;1.00;;;13.70;98.20;;;;;;5015024;28;20480;-75
2022/10/31 04:01:06;;;;;;;1.60;1.10;;;13.70;98.20;;;;;;4980773;28;20495;-74
2022/10/31 04:03:37;;;;;;;1.60;1.20;;;13.70;98.20;;;;;;5000275;28;20500;-74
2022/10/31 04:06:07;;;;;;;1.57;1.00;;;13.70;98.20;;;;;;4994824;28;20460;-74
2022/10/31 04:08:38;;;;;;;1.50;1.00;;;13.70;98.20;;;;;;5006660;28;21209;-75
2022/10/31 04:11:07;;;;;;;1.60;1.13;;;13.70;98.20;;;;;;4994172;28;20550;-74
2022/10/31 04:13:38;;;;;;;1.57;1.00;;;13.70;98.20;;;;;;4993359;28;20485;-74
2022/10/31 04:16:05;;;;;;;1.53;1.00;;;13.70;98.20;;;;;;4985647;28;20476;-75
2022/10/31 04:18:34;;;;;;;1.70;1.27;;;13.80;98.20;;;;;;5018327;28;20461;-74
2022/10/31 04:21:02;;;;;;;1.53;1.00;;;13.80;98.20;;;;;;4983135;28;20468;-75
2022/10/31 04:23:29;;;;;;;1.50;1.00;;;13.80;98.20;;;;;;5004254;28;20496;-74
2022/10/31 04:25:56;;;;;;;1.57;1.00;;;13.80;98.20;;;;;;4983307;28;20469;-75
2022/10/31 04:28:23;;;;;;;1.60;1.10;;;13.80;98.20;;;;;;5007230;28;20909;-74
2022/10/31 04:30:50;;;;;;;1.60;1.10;;;13.70;98.20;;;;;;4989837;28;20680;-74
2022/10/31 04:33:17;;;;;;;2.70;2.50;;;13.70;98.20;;;;;;5011553;28;20476;-74
2022/10/31 04:35:45;;;;;;;1.60;1.20;;;13.70;98.20;;;;;;5002436;28;20464;-75
2022/10/31 04:38:12;;;;;;;1.53;1.03;;;13.70;98.20;;;;;;4981082;28;20969;-75
2022/10/31 04:40:39;;;;;;;1.53;1.00;;;13.70;98.20;;;;;;4998828;28;20843;-75
2022/10/31 04:43:06;;;;;;;1.60;1.10;;;13.60;98.20;;;;;;4998350;28;20475;-75
2022/10/31 04:45:32;;;;;;;1.57;1.10;;;13.60;98.20;;;;;;4995976;28;20453;-75
2022/10/31 04:47:59;;;;;;;1.60;1.00;;;13.60;98.20;;;;;;4996221;28;20483;-75
2022/10/31 04:50:26;;;;;;;1.60;1.20;;;13.60;98.20;;;;;;4991507;28;20549;-75
2022/10/31 04:52:54;;;;;;;1.53;1.00;;;13.60;98.20;;;;;;4999310;28;20965;-75
2022/10/31 04:55:21;;;;;;;1.60;1.00;;;13.60;98.20;;;;;;4990697;28;20527;-76
2022/10/31 04:57:49;;;;;;;1.60;1.10;;;13.60;98.20;;;;;;4995573;28;20476;-75
2022/10/31 05:00:18;;;;;;;1.57;1.00;;;13.60;98.20;;;;;;4991409;28;20465;-75
2022/10/31 05:02:46;;;;;;;1.50;1.00;;;13.60;98.20;;;;;;4996551;28;20514;-75
2022/10/31 05:05:13;;;;;;;1.53;1.00;;;13.60;98.20;;;;;;4999966;28;20476;-75
2022/10/31 05:07:41;;;;;;;1.57;1.00;;;13.60;98.20;;;;;;4997556;28;20488;-75
2022/10/31 05:10:10;;;;;;;1.53;1.00;;;13.60;98.20;;;;;;4997779;28;20858;-75
2022/10/31 05:12:37;;;;;;;4.33;3.17;;;13.60;98.20;;;;;;4992554;28;20499;-76
2022/10/31 05:15:05;;;;;;;1.60;1.10;;;13.60;98.20;;;;;;5000597;28;20492;-75
2022/10/31 05:17:32;;;;;;;1.60;1.10;;;13.60;98.20;;;;;;4993847;28;20543;-75
2022/10/31 05:19:59;;;;;;;1.57;1.00;;;13.60;98.20;;;;;;4990559;28;21196;-75
2022/10/31 05:22:26;;;;;;;1.57;1.00;;;13.60;98.20;;;;;;4995161;28;20484;-75
2022/10/31 05:24:53;;;;;;;1.60;1.00;;;13.50;98.20;;;;;;4992675;28;20551;-75
2022/10/31 05:27:21;;;;;;;1.50;1.00;;;13.50;98.20;;;;;;4991728;28;20570;-75
2022/10/31 05:29:48;;;;;;;1.60;1.07;;;13.50;98.20;;;;;;4993739;28;20487;-75
2022/10/31 05:32:15;;;;;;;1.57;1.00;;;13.60;98.20;;;;;;4992051;28;20492;-75
2022/10/31 05:34:42;;;;;;;1.60;1.10;;;13.60;98.20;;;;;;4994389;28;20488;-74
2022/10/31 05:37:08;;;;;;;1.60;1.03;;;13.60;98.20;;;;;;5000716;28;20487;-75
2022/10/31 05:39:35;;;;;;;1.60;1.10;;;13.60;98.20;;;;;;5004566;28;20838;-75
2022/10/31 05:42:02;;;;;;;1.53;1.00;;;13.50;98.20;;;;;;4989007;28;20493;-75
2022/10/31 05:44:30;;;;;;;1.50;1.00;;;13.60;98.20;;;;;;4989726;28;21021;-75
2022/10/31 05:46:57;;;;;;;1.50;1.00;;;13.50;98.20;;;;;;4997386;28;20498;-75
2022/10/31 05:49:23;;;;;;;1.53;1.00;;;13.50;98.20;;;;;;5003407;28;20493;-75
2022/10/31 05:51:50;;;;;;;1.50;1.00;;;13.50;98.20;;;;;;4988038;28;21114;-76
2022/10/31 05:54:17;;;;;;;1.60;1.00;;;13.50;98.20;;;;;;4996794;28;20493;-76
2022/10/31 05:56:44;;;;;;;1.50;1.00;;;13.50;98.20;;;;;;4994009;28;20487;-75
2022/10/31 05:59:10;;;;;;;1.53;1.00;;;13.50;98.20;;;;;;5006688;28;20468;-76
2022/10/31 06:01:39;;;;;;;1.53;1.00;;;13.40;98.20;;;;;;4985732;28;20499;-75
2022/10/31 06:04:06;;;;;;;1.60;1.00;;;13.40;98.20;;;;;;4998659;28;20481;-75
2022/10/31 06:06:32;;;;;;;1.57;1.00;;;13.40;98.20;;;;;;4999349;28;20491;-75
2022/10/31 06:08:59;;;;;;;1.50;1.00;;;13.30;98.20;;;;;;5005874;28;20481;-76
2022/10/31 06:11:26;;;;;;;1.60;1.00;;;13.30;98.20;;;;;;4992674;28;20476;-76
2022/10/31 06:13:52;;;;;;;1.53;1.00;;;13.30;98.20;;;;;;4998375;28;20496;-75
2022/10/31 06:16:19;;;;;;;1.57;1.10;;;13.30;98.20;;;;;;4980660;28;20531;-77
2022/10/31 06:18:48;;;;;;;1.57;1.00;;;13.30;98.20;;;;;;4989082;28;20461;-76
2022/10/31 06:21:15;;;;;;;1.50;1.00;;;13.30;98.20;;;;;;4981233;28;21158;-76
2022/10/31 06:23:42;;;;;;;1.60;1.00;;;13.30;98.20;;;;;;5002143;28;20484;-76
2022/10/31 06:26:09;;;;;;;1.53;1.00;;;13.30;98.20;;;;;;4983416;28;20491;-76
2022/10/31 06:28:36;;;;;;;1.60;1.00;;;13.20;98.20;;;;;;5000100;28;20492;-75
2022/10/31 06:31:02;;;;;;;1.60;1.10;;;13.20;98.20;;;;;;4997025;28;20949;-76
2022/10/31 06:33:29;;;;;;;1.60;1.10;;;13.20;98.20;;;;;;5002149;28;20492;-76
2022/10/31 06:35:58;;;;;;;1.60;1.00;;;13.20;98.20;;;;;;4979305;28;20460;-76
2022/10/31 06:38:26;;;;;;;1.60;1.20;;;13.10;98.20;;;;;;4991209;28;20537;-75
2022/10/31 06:40:53;;;;;;;1.60;1.10;;;13.10;98.20;;;;;;4988570;28;20469;-76
2022/10/31 06:43:20;;;;;;;1.60;1.10;;;13.10;98.20;;;;;;5000795;28;20485;-77
2022/10/31 06:45:47;;;;;;;1.60;0.90;;;13.10;98.20;;;;;;4986707;28;20853;-76
2022/10/31 06:48:14;;;;;;;1.53;1.00;;;13.10;98.20;;;;;;5003975;28;20489;-76
2022/10/31 06:50:41;;;;;;;1.60;1.00;;;13.10;98.20;;;;;;4989330;28;20465;-76
2022/10/31 06:53:10;;;;;;;1.60;1.10;;;13.10;98.20;;;;;;4995824;28;20481;-76
2022/10/31 06:55:37;;;;;;;2.47;2.27;;;13.10;98.20;;;;;;4989570;28;20465;-75
2022/10/31 06:58:04;;;;;;;1.60;1.00;;;13.10;98.20;;;;;;5002211;28;20839;-75
2022/10/31 07:00:31;;;;;;;1.60;1.10;;;13.10;98.20;;;;;;4989562;28;20460;-77
2022/10/31 07:03:00;;;;;;;1.60;1.10;;;13.10;98.20;;;;;;4993973;28;20483;-77
2022/10/31 07:05:28;;;;;;;1.60;1.00;;;13.10;98.20;;;;;;4981415;28;20478;-76
2022/10/31 07:07:55;;;;;;;1.60;1.20;;;13.10;98.20;;;;;;4983496;28;20955;-76
2022/10/31 07:10:25;;;;;;;1.60;1.10;;;13.10;98.20;;;;;;4973663;28;20469;-77
2022/10/31 07:12:56;;;;;;;1.60;1.00;;;13.20;98.20;;;;;;4973233;28;20989;-76
2022/10/31 07:15:23;;;;;;;1.60;1.10;;;13.20;98.20;;;;;;4971025;28;20569;-76
2022/10/31 07:17:50;;;;;;;1.60;1.10;;;13.30;98.20;;;;;;4976190;28;20859;-77
2022/10/31 07:20:17;;;;;;;1.60;1.00;;;13.30;98.20;;;;;;4972994;28;20477;-77
2022/10/31 07:22:44;;;;;;;1.50;1.00;;;13.30;98.20;;;;;;4970792;28;21051;-76
2022/10/31 07:25:11;;;;;;;1.60;1.20;;;13.40;98.20;;;;;;4974482;28;20489;-77
2022/10/31 07:27:41;;;;;;;1.53;1.00;;;13.40;98.20;;;;;;4971651;28;20480;-77
2022/10/31 07:30:10;;;;;;;1.57;1.00;;;13.40;98.20;;;;;;4979532;28;20788;-77
2022/10/31 07:32:40;;;;;;;1.50;1.00;;;13.40;98.20;;;;;;4968737;28;20493;-77
2022/10/31 07:35:08;;;;;;;1.57;1.00;;;13.40;98.20;;;;;;4985861;28;20493;-76
2022/10/31 07:37:34;;;;;;;1.53;1.00;;;13.40;98.20;;;;;;4982052;28;20493;-75
2022/10/31 07:40:01;;;;;;;1.60;1.10;;;13.40;98.20;;;;;;4971380;28;20473;-76
2022/10/31 07:42:28;;;;;;;1.53;1.00;;;13.40;98.20;;;;;;4974229;28;20473;-77
2022/10/31 07:44:56;;;;;;;2.90;2.43;;;13.50;98.20;;;;;;4978721;28;20865;-77
2022/10/31 07:47:23;;;;;;;1.60;1.20;;;13.50;98.20;;;;;;4976068;28;20507;-76
2022/10/31 07:49:50;;;;;;;1.57;1.00;;;13.60;98.20;;;;;;4976584;28;20863;-77
2022/10/31 07:52:17;;;;;;;1.60;1.00;;;13.70;98.20;;;;;;4975485;28;20855;-76
2022/10/31 07:54:43;;;;;;;1.53;1.00;;;13.70;98.20;;;;;;4980873;28;20486;-76
2022/10/31 07:57:10;;;;;;;1.57;1.00;;;13.80;98.20;;;;;;4965314;28;20494;-76
2022/10/31 07:59:37;;;;;;;1.53;1.00;;;13.90;98.20;;;;;;4982140;28;20465;-76
2022/10/31 08:02:05;;;;;;;1.60;1.03;;;14.00;98.20;;;;;;4979205;28;20673;-76
2022/10/31 08:04:32;;;;;;;1.50;0.90;;;14.10;98.20;;;;;;4978686;28;20489;-76
2022/10/31 08:06:59;;;;;;;1.57;1.00;;;14.10;98.20;;;;;;4969686;28;20476;-76
2022/10/31 08:09:26;;;;;;;1.50;1.00;;;14.20;98.20;;;;;;4982981;28;20881;-76
2022/10/31 08:11:54;;;;;;;1.57;1.00;;;14.20;98.20;;;;;;4975752;28;20563;-77
2022/10/31 08:14:22;;;;;;;1.60;1.07;;;14.30;98.20;;;;;;4994616;28;21009;-76
2022/10/31 08:16:48;;;;;;;1.53;1.00;;;14.40;98.20;;;;;;4985663;28;20535;-77
2022/10/31 08:19:17;;;;;;;1.53;1.00;;;14.40;98.20;;;;;;4985876;28;20462;-77
2022/10/31 08:21:43;;;;;;;1.57;1.00;;;14.40;98.20;;;;;;4972648;28;20491;-77
2022/10/31 08:24:10;;;;;;;1.50;1.00;;;14.50;98.20;;;;;;4979069;28;20521;-77
2022/10/31 08:26:37;;;;;;;1.50;1.00;;;14.50;98.20;;;;;;4969679;28;21025;-77
2022/10/31 08:29:04;;;;;;;2.17;1.97;;;14.60;98.20;;;;;;4982652;28;20783;-77
2022/10/31 08:31:31;;;;;;;1.60;1.10;;;14.70;98.20;;;;;;4970779;28;20485;-77
2022/10/31 08:33:57;;;;;;;1.60;1.10;;;14.70;98.20;;;;;;4979356;28;20497;-77
2022/10/31 08:36:25;;;;;;;1.60;1.00;;;14.80;98.20;;;;;;4972219;28;20484;-77
2022/10/31 08:38:52;;;;;;;1.60;1.07;;;14.80;98.20;;;;;;4984998;28;20472;-76
2022/10/31 08:41:19;;;;;;;1.60;1.00;;;14.80;98.20;;;;;;4966415;28;20479;-76
2022/10/31 08:43:47;;;;;;;1.57;1.03;;;14.90;98.20;;;;;;4987158;28;20489;-76
2022/10/31 08:46:14;;;;;;;1.60;1.00;;;15.00;98.20;;;;;;4968269;28;20556;-76
2022/10/31 08:48:41;;;;;;;1.53;1.00;;;15.00;98.20;;;;;;5000251;28;20852;-77
2022/10/31 08:51:08;;;;;;;1.57;1.00;;;15.10;98.20;;;;;;4978357;28;20483;-77
2022/10/31 08:53:36;;;;;;;1.60;1.00;;;15.20;98.20;;;;;;4992460;28;20565;-75
2022/10/31 08:56:02;;;;;;;1.60;1.00;;;15.20;98.20;;;;;;4970572;28;20476;-75
2022/10/31 08:58:29;;;;;;;1.60;1.10;;;15.30;98.20;;;;;;4987969;28;20457;-77
2022/10/31 09:00:57;;;;;;;1.57;1.00;;;15.30;98.20;;;;;;4976959;28;21012;-77
2022/10/31 09:03:26;;;;;;;1.57;1.00;;;15.40;98.20;;;;;;4995820;28;20896;-77
2022/10/31 09:05:56;;;;;;;1.57;1.00;;;15.50;98.20;;;;;;4967357;28;20553;-77
2022/10/31 09:08:23;;;;;;;1.60;1.00;;;15.50;98.20;;;;;;4990936;28;20470;-75
2022/10/31 09:10:52;;;;;;;1.60;1.00;;;15.60;98.20;;;;;;4964478;28;20552;-78
2022/10/31 09:13:20;;;;;;;1.60;1.10;;;15.70;98.20;;;;;;4995331;28;20474;-77
2022/10/31 09:15:48;;;;;;;1.57;0.90;;;15.70;98.20;;;;;;4986483;28;20565;-76
2022/10/31 09:18:17;;;;;;;1.60;1.00;;;15.90;98.20;;;;;;4999786;28;20469;-76
2022/10/31 09:20:45;;;;;;;1.57;0.90;;;15.90;98.20;;;;;;4978368;28;20469;-76
2022/10/31 09:23:14;;;;;;;1.60;1.00;;;16.00;98.20;;;;;;4962975;28;20485;-76
2022/10/31 09:25:42;;;;;;;1.60;1.00;;;16.00;98.20;;;;;;4971074;28;20464;-76
2022/10/31 09:28:12;;;;;;;1.57;1.00;;;16.10;98.20;;;;;;4988847;28;20502;-76
2022/10/31 09:30:40;;;;;;;1.57;1.00;;;16.10;98.20;;;;;;4973637;28;20490;-76
2022/10/31 09:33:10;;;;;;;1.60;1.00;;;16.20;98.20;;;;;;4976983;28;20481;-77
2022/10/31 09:35:37;;;;;;;1.80;1.40;;;16.20;98.20;;;;;;4973838;28;20468;-76
2022/10/31 09:38:06;;;;;;;1.57;1.00;;;16.20;98.20;;;;;;4978463;28;20987;-75
2022/10/31 09:40:36;;;;;;;1.60;0.90;;;16.30;98.20;;;;;;4975461;28;20468;-76
2022/10/31 09:43:15;;;;;;;1.53;0.90;;;16.40;98.20;;;;;;4978315;28;20491;-76
2022/10/31 09:45:51;;;;;;;1.60;1.00;;;16.50;98.20;;;;;;4979097;28;20978;-76
2022/10/31 09:48:32;;;;;;;1.60;1.00;;;16.60;98.20;;;;;;4962283;28;20561;-77
2022/10/31 09:51:03;;;;;;;1.60;0.90;;;16.60;98.20;;;;;;4978651;28;20497;-75
2022/10/31 09:53:38;;;;;;;1.70;1.30;;;16.60;98.20;;;;;;5002889;28;20497;-78
2022/10/31 09:56:08;;;;;;;1.60;1.00;;;16.60;98.20;;;;;;4965474;28;20469;-76
2022/10/31 09:58:42;;;;;;;1.60;1.10;;;16.50;98.20;;;;;;4975506;28;20476;-75
2022/10/31 10:01:18;;;;;;;1.80;1.43;;;16.60;98.20;;;;;;4973330;28;20481;-75
2022/10/31 10:03:48;;;;;;;1.60;1.00;;;16.60;98.20;;;;;;4981122;28;20482;-76
2022/10/31 10:06:20;;;;;;;1.60;1.10;;;16.70;98.20;;;;;;4953999;28;20476;-77
2022/10/31 10:08:47;;;;;;;1.60;1.00;;;16.70;98.20;;;;;;4991571;28;20494;-78
2022/10/31 10:11:28;;;;;;;1.50;1.00;;;16.80;98.20;;;;;;4966078;28;20484;-77
2022/10/31 10:14:12;;;;;;;1.60;1.00;;;16.80;98.20;;;;;;4979173;28;20481;-77
2022/10/31 10:16:53;;;;;;;1.60;1.00;;;16.90;98.20;;;;;;4974256;28;20491;-77
2022/10/31 10:19:37;;;;;;;1.57;0.90;;;16.90;98.20;;;;;;4977091;28;20540;-77
2022/10/31 10:22:10;;;;;;;1.57;0.90;;;16.90;98.20;;;;;;4970494;28;20495;-76
2022/10/31 10:24:55;;;;;;;1.57;1.00;;;17.00;98.20;;;;;;4971675;28;20493;-77
2022/10/31 10:27:29;;;;;;;1.60;1.10;;;17.10;98.20;;;;;;4973501;28;20473;-77
2022/10/31 10:30:06;;;;;;;1.57;0.90;;;17.10;98.20;;;;;;4982478;28;20490;-77
2022/10/31 10:32:41;;;;;;;1.57;1.00;;;17.10;98.20;;;;;;4971603;28;20585;-77
2022/10/31 10:35:19;;;;;;;1.60;0.90;;;17.10;98.20;;;;;;4974500;28;20489;-77
2022/10/31 10:37:50;;;;;;;1.60;1.10;;;17.20;98.20;;;;;;4977081;28;21035;-76
2022/10/31 10:40:19;;;;;;;1.60;1.00;;;17.20;98.20;;;;;;4974029;28;20461;-75
2022/10/31 10:48:40;;;;;;;1.60;1.00;;;17.30;98.20;;;;;;4962826;28;20532;-77
2022/10/31 10:51:16;;;;;;;1.60;1.00;;;17.30;98.20;;;;;;4977071;28;20479;-75
2022/10/31 10:54:01;;;;;;;1.60;1.20;;;17.40;98.20;;;;;;4988589;28;20493;-76
2022/10/31 10:56:40;;;;;;;3.30;3.00;;;17.50;98.20;;;;;;4977409;28;20506;-77
2022/10/31 10:59:11;;;;;;;1.60;1.17;;;17.60;98.20;;;;;;4987122;28;20468;-76
2022/10/31 11:01:41;;;;;;;1.50;1.00;;;17.60;98.20;;;;;;4964864;28;20482;-77
2022/10/31 11:04:24;;;;;;;1.50;1.00;;;17.80;98.20;;;;;;4978537;28;20486;-77
2022/10/31 11:06:58;;;;;;;2.27;2.07;;;18.00;98.20;;;;;;4973390;28;20480;-77
2022/10/31 11:09:25;;;;;;;1.53;0.90;;;18.10;98.20;;;;;;4985753;28;20488;-77
2022/10/31 11:11:52;;;;;;;1.53;1.00;;;18.20;98.20;;;;;;4975584;28;20485;-77
2022/10/31 11:14:20;;;;;;;1.57;0.90;;;18.30;98.20;;;;;;4975328;28;20493;-77
2022/10/31 11:16:51;;;;;;;1.57;0.90;;;18.40;98.20;;;;;;4970671;28;20567;-75
2022/10/31 11:19:20;;;;;;;1.60;1.00;;;18.40;98.20;;;;;;4988199;28;20531;-77
2022/10/31 11:21:49;;;;;;;1.60;1.10;;;18.40;98.20;;;;;;4971567;28;20572;-77
2022/10/31 11:24:18;;;;;;;1.60;1.00;;;18.50;98.20;;;;;;4980961;28;20632;-77
2022/10/31 11:26:46;;;;;;;1.60;0.93;;;18.70;98.20;;;;;;4967057;28;21123;-75
2022/10/31 11:29:18;;;;;;;1.57;0.90;;;18.80;98.20;;;;;;4979082;28;20501;-76
2022/10/31 11:31:48;;;;;;;1.57;0.90;;;19.00;98.20;;;;;;4974459;28;20980;-75
2022/10/31 11:34:21;;;;;;;1.60;1.10;;;19.20;98.20;;;;;;4977750;28;20537;-77
2022/10/31 11:36:49;;;;;;;1.57;1.00;;;19.30;98.20;;;;;;4965621;28;20494;-76
2022/10/31 11:39:21;;;;;;;1.60;0.90;;;19.50;98.20;;;;;;4976784;28;20454;-76
2022/10/31 11:41:49;;;;;;;1.53;0.90;;;19.60;98.20;;;;;;4968966;28;20519;-77
2022/10/31 11:44:19;;;;;;;1.53;0.90;;;19.70;98.00;;;;;;4983340;28;20487;-76
2022/10/31 11:46:49;;;;;;;1.60;0.90;;;19.70;98.20;;;;;;4973362;28;20579;-76
2022/10/31 11:49:19;;;;;;;1.60;0.90;;;19.90;97.80;;;;;;4981703;28;20466;-76
2022/10/31 11:51:50;;;;;;;1.53;0.90;;;20.00;97.20;;;;;;4966492;28;20495;-75
2022/10/31 11:54:26;;;;;;;1.60;0.90;;;20.10;97.30;;;;;;4983387;28;20532;-74
2022/10/31 11:56:53;;;;;;;1.57;0.90;;;20.10;96.10;;;;;;4977192;28;20492;-76
2022/10/31 11:59:26;;;;;;;1.57;0.90;;;20.20;96.60;;;;;;4978505;28;20464;-76
2022/10/31 12:01:55;;;;;;;1.57;0.83;;;20.20;96.00;;;;;;4968749;28;20881;-77
2022/10/31 12:04:32;;;;;;;81.53;7.70;;;20.20;96.00;;;;;;4983505;28;20481;-76
2022/10/31 12:06:59;;;;;;;1.50;0.90;;;20.20;95.90;;;;;;4969590;28;20484;-76
2022/10/31 12:09:29;;;;;;;1.57;0.90;;;20.20;96.30;;;;;;4977243;28;20482;-76
2022/10/31 12:12:21;;;;;;;1.53;0.90;;;20.20;95.40;;;;;;4964780;28;20480;-74
2022/10/31 12:15:00;;;;;;;1.53;0.90;;;20.20;95.50;;;;;;4981127;28;20488;-75
2022/10/31 12:17:32;;;;;;;2.03;1.83;;;20.20;95.60;;;;;;4971915;28;20570;-74
2022/10/31 12:20:09;;;;;;;1.53;0.90;;;20.20;95.50;;;;;;4984700;28;20542;-76
2022/10/31 12:22:48;;;;;;;1.70;1.10;;;20.20;95.40;;;;;;4964642;28;20492;-76
2022/10/31 12:25:28;;;;;;;1.50;0.90;;;20.20;96.00;;;;;;4968182;28;20505;-76
2022/10/31 12:28:23;;;;;;;1.53;0.90;;;20.10;95.70;;;;;;4967782;28;20495;-76
2022/10/31 12:31:01;;;;;;;1.53;0.90;;;20.10;95.70;;;;;;4961901;28;20485;-74
2022/10/31 12:33:48;;;;;;;1.60;1.00;;;20.10;95.90;;;;;;4987180;28;20485;-76
2022/10/31 12:36:40;;;;;;;1.70;1.30;;;20.10;95.50;;;;;;4968463;28;20980;-76
2022/10/31 12:39:23;;;;;;;1.77;1.40;;;20.10;96.00;;;;;;4974635;28;20594;-76
2022/10/31 12:41:53;;;;;;;2.20;1.73;;;20.10;96.00;;;;;;4970338;28;20482;-75
2022/10/31 12:44:49;;;;;;;1.70;1.10;;;20.20;96.30;;;;;;4978743;28;20493;-77
2022/10/31 12:47:41;;;;;;;1.50;0.90;;;20.20;96.00;;;;;;4970608;28;20522;-74
2022/10/31 12:50:23;;;;;;;1.60;1.00;;;20.10;96.60;;;;;;4975947;28;20986;-75
2022/10/31 12:52:59;;;;;;;1.60;0.90;;;20.10;96.50;;;;;;4976145;28;20558;-75
2022/10/31 12:55:49;;;;;;;1.50;0.90;;;20.00;96.50;;;;;;4982337;28;20733;-77
2022/10/31 12:58:23;;;;;;;1.53;0.90;;;19.90;96.10;;;;;;4978687;28;20648;-77
2022/10/31 13:00:59;;;;;;;1.57;0.97;;;19.90;96.80;;;;;;4962251;28;20463;-75
2022/10/31 13:03:31;;;;;;;1.60;1.10;;;19.80;96.90;;;;;;4973843;28;20482;-78
2022/10/31 13:06:04;;;;;;;1.53;0.90;;;19.80;96.80;;;;;;4964812;28;20887;-77
2022/10/31 13:08:40;;;;;;;1.53;0.90;;;19.80;96.80;;;;;;4984404;28;20537;-75
2022/10/31 13:11:11;;;;;;;1.60;1.00;;;19.80;96.70;;;;;;4968486;28;20489;-76